createdAt,value
2024-03-21T00:00:36.741Z,3.10
2024-03-21T00:03:03.651Z,3.00
2024-03-21T00:05:31.344Z,3.00
2024-03-21T00:07:57.885Z,3.00
2024-03-21T00:10:24.673Z,2.90
2024-03-21T00:12:51.727Z,2.90
2024-03-21T00:15:18.373Z,2.86
2024-03-21T00:17:46.594Z,2.80
2024-03-21T00:20:13.504Z,2.70
2024-03-21T00:22:42.678Z,2.70
2024-03-21T00:25:10.341Z,2.60
2024-03-21T00:27:39.180Z,2.60
2024-03-21T00:32:35.103Z,2.50
2024-03-21T00:35:01.685Z,2.50
2024-03-21T00:37:29.354Z,2.50
2024-03-21T00:39:55.695Z,2.40
2024-03-21T00:42:23.120Z,2.40
2024-03-21T00:44:50.017Z,2.40
2024-03-21T00:47:16.352Z,2.32
2024-03-21T00:49:42.720Z,2.30
2024-03-21T00:52:09.170Z,2.30
2024-03-21T00:54:35.513Z,2.28
2024-03-21T00:57:01.969Z,2.20
2024-03-21T00:59:28.533Z,2.20
2024-03-21T01:01:55.317Z,2.20
2024-03-21T01:04:21.638Z,2.10
2024-03-21T01:06:48.247Z,2.10
2024-03-21T01:09:15.808Z,2.10
2024-03-21T01:11:42.948Z,2.00
2024-03-21T01:14:09.372Z,2.00
2024-03-21T01:16:36.451Z,2.00
2024-03-21T01:19:02.912Z,2.00
2024-03-21T01:21:30.607Z,2.00
2024-03-21T01:23:57.281Z,2.00
2024-03-21T01:26:23.778Z,1.90
2024-03-21T01:28:50.383Z,1.90
2024-03-21T01:31:21.600Z,1.90
2024-03-21T01:33:52.421Z,1.84
2024-03-21T01:36:18.769Z,1.80
2024-03-21T01:38:45.930Z,1.70
2024-03-21T01:41:12.575Z,1.68
2024-03-21T01:43:41.074Z,1.60
2024-03-21T01:46:09.430Z,1.52
2024-03-21T01:48:37.898Z,1.50
2024-03-21T01:51:05.336Z,1.50
2024-03-21T01:53:34.498Z,1.50
2024-03-21T01:56:01.270Z,1.50
2024-03-21T01:58:27.626Z,1.56
2024-03-21T02:00:55.145Z,1.60
2024-03-21T02:03:21.593Z,1.60
2024-03-21T02:05:48.115Z,1.70
2024-03-21T02:08:14.462Z,1.66
2024-03-21T02:10:40.890Z,1.60
2024-03-21T02:13:07.298Z,1.60
2024-03-21T02:15:33.695Z,1.50
2024-03-21T02:18:00.599Z,1.50
2024-03-21T02:20:27.193Z,1.40
2024-03-21T02:22:53.737Z,1.40
2024-03-21T02:25:20.119Z,1.38
2024-03-21T02:27:46.495Z,1.30
2024-03-21T02:30:13.353Z,1.30
2024-03-21T02:32:39.784Z,1.30
2024-03-21T02:37:33.894Z,1.30
2024-03-21T02:40:00.238Z,1.26
2024-03-21T02:42:27.082Z,1.20
2024-03-21T02:44:53.824Z,1.20
2024-03-21T02:47:20.444Z,1.20
2024-03-21T02:49:47.152Z,1.20
2024-03-21T02:52:13.819Z,1.20
2024-03-21T02:54:40.255Z,1.20
2024-03-21T02:57:09.837Z,1.20
2024-03-21T02:59:36.591Z,1.10
2024-03-21T03:02:04.892Z,1.10
2024-03-21T03:04:31.359Z,1.00
2024-03-21T03:06:57.895Z,0.96
2024-03-21T03:09:24.382Z,0.90
2024-03-21T03:11:50.815Z,0.90
2024-03-21T03:14:17.659Z,0.80
2024-03-21T03:16:44.071Z,0.80
2024-03-21T03:19:10.629Z,0.80
2024-03-21T03:21:37.021Z,0.80
2024-03-21T03:24:03.947Z,0.80
2024-03-21T03:26:30.366Z,0.80
2024-03-21T03:28:56.749Z,0.80
2024-03-21T03:31:23.197Z,0.90
2024-03-21T03:36:34.444Z,0.90
2024-03-21T03:39:00.790Z,0.90
2024-03-21T03:41:27.138Z,0.90
2024-03-21T03:43:53.543Z,0.90
2024-03-21T03:46:20.096Z,0.90
2024-03-21T03:48:46.546Z,0.90
2024-03-21T03:51:12.858Z,0.90
2024-03-21T03:53:39.247Z,0.90
2024-03-21T03:56:05.764Z,0.98
2024-03-21T03:58:32.268Z,1.00
2024-03-21T04:01:01.389Z,1.00
2024-03-21T04:03:29.415Z,1.00
2024-03-21T04:05:57.240Z,1.10
2024-03-21T04:08:23.871Z,1.10
2024-03-21T04:10:50.441Z,1.12
2024-03-21T04:13:16.900Z,1.20
2024-03-21T04:15:43.604Z,1.20
2024-03-21T04:18:10.326Z,1.20
2024-03-21T04:20:36.623Z,1.20
2024-03-21T04:23:03.083Z,1.20
2024-03-21T04:25:31.010Z,1.20
2024-03-21T04:27:57.384Z,1.20
2024-03-21T04:30:23.840Z,1.20
2024-03-21T04:32:50.141Z,1.20
2024-03-21T04:35:16.577Z,1.22
2024-03-21T04:37:42.968Z,1.30
2024-03-21T04:40:09.957Z,1.30
2024-03-21T04:42:36.464Z,1.40
2024-03-21T04:45:02.946Z,1.40
2024-03-21T04:47:29.471Z,1.50
2024-03-21T04:49:56.190Z,1.60
2024-03-21T04:52:22.603Z,1.70
2024-03-21T04:54:52.453Z,1.70
2024-03-21T04:57:18.816Z,1.84
2024-03-21T04:59:45.173Z,1.90
2024-03-21T05:02:11.499Z,2.00
2024-03-21T05:04:38.176Z,2.10
2024-03-21T05:07:05.208Z,2.20
2024-03-21T05:09:31.629Z,2.30
2024-03-21T05:11:58.066Z,2.40
2024-03-21T05:14:24.398Z,2.44
2024-03-21T05:16:50.712Z,2.50
2024-03-21T05:19:17.280Z,2.60
2024-03-21T05:21:43.687Z,2.60
2024-03-21T05:24:10.256Z,2.68
2024-03-21T05:26:36.637Z,2.70
2024-03-21T05:29:03.330Z,2.70
2024-03-21T05:31:29.824Z,2.80
2024-03-21T05:33:56.203Z,2.90
2024-03-21T05:36:22.617Z,2.90
2024-03-21T05:38:49.280Z,3.00
2024-03-21T05:41:15.715Z,3.10
2024-03-21T05:43:42.235Z,3.20
2024-03-21T05:48:35.124Z,3.30
2024-03-21T05:51:02.808Z,3.40
2024-03-21T05:53:30.313Z,3.50
2024-03-21T05:56:02.175Z,3.60
2024-03-21T05:58:28.888Z,3.70
2024-03-21T06:01:10.100Z,3.80
2024-03-21T06:03:36.643Z,3.90
2024-03-21T06:06:03.455Z,4.00
2024-03-21T06:08:29.851Z,4.16
2024-03-21T06:10:56.347Z,4.30
2024-03-21T06:13:22.744Z,4.40
2024-03-21T06:15:49.576Z,4.50
2024-03-21T06:18:16.214Z,4.62
2024-03-21T06:20:43.577Z,4.78
2024-03-21T06:23:10.016Z,4.90
2024-03-21T06:25:37.844Z,5.04
2024-03-21T06:28:06.018Z,5.20
2024-03-21T06:30:34.102Z,5.40
2024-03-21T06:33:00.682Z,5.60
2024-03-21T06:35:27.809Z,5.76
2024-03-21T06:37:55.589Z,5.92
2024-03-21T06:40:23.923Z,6.10
2024-03-21T06:42:50.695Z,6.20
2024-03-21T06:45:17.414Z,6.40
2024-03-21T06:47:46.010Z,6.50
2024-03-21T06:50:19.119Z,6.62
2024-03-21T06:52:47.886Z,6.72
2024-03-21T06:55:18.247Z,6.82
2024-03-21T06:57:58.178Z,6.98
2024-03-21T07:00:28.670Z,7.10
2024-03-21T07:02:56.240Z,7.30
2024-03-21T07:05:26.476Z,7.46
2024-03-21T07:07:53.940Z,7.60
2024-03-21T07:10:20.909Z,7.74
2024-03-21T07:12:47.487Z,7.90
2024-03-21T07:15:17.325Z,8.10
2024-03-21T07:17:44.189Z,8.20
2024-03-21T07:20:14.854Z,8.26
2024-03-21T07:22:41.428Z,8.40
2024-03-21T07:27:34.829Z,8.50
2024-03-21T07:30:01.259Z,8.60
2024-03-21T07:32:27.640Z,8.70
2024-03-21T07:34:53.965Z,8.70
2024-03-21T07:37:20.285Z,8.80
2024-03-21T07:39:48.514Z,8.90
2024-03-21T07:42:14.994Z,8.96
2024-03-21T07:44:41.364Z,9.06
2024-03-21T07:47:07.917Z,9.10
2024-03-21T07:49:34.272Z,9.10
2024-03-21T07:52:02.120Z,9.20
2024-03-21T07:54:33.517Z,9.20
2024-03-21T07:57:01.231Z,9.20
2024-03-21T07:59:27.566Z,9.20
2024-03-21T08:01:53.964Z,9.20
2024-03-21T08:04:20.545Z,9.20
2024-03-21T08:06:47.437Z,9.30
2024-03-21T08:09:14.092Z,9.40
2024-03-21T08:11:40.585Z,9.50
2024-03-21T08:14:07.158Z,9.50
2024-03-21T08:16:33.615Z,9.60
2024-03-21T08:19:00.042Z,9.60
2024-03-21T08:21:26.369Z,9.70
2024-03-21T08:23:52.684Z,9.80
2024-03-21T08:26:20.208Z,9.90
2024-03-21T08:28:46.587Z,9.90
2024-03-21T08:31:12.929Z,10.00
2024-03-21T08:33:39.652Z,10.10
2024-03-21T08:36:06.731Z,10.12
2024-03-21T08:38:33.515Z,10.22
2024-03-21T08:41:00.554Z,10.30
2024-03-21T08:43:27.018Z,10.40
2024-03-21T08:45:54.642Z,10.50
2024-03-21T08:48:21.302Z,10.64
2024-03-21T08:50:48.506Z,10.80
2024-03-21T08:53:16.372Z,10.90
2024-03-21T08:55:42.850Z,11.00
2024-03-21T09:00:35.532Z,11.20
2024-03-21T09:03:02.130Z,11.30
2024-03-21T09:05:29.155Z,11.40
2024-03-21T09:07:56.385Z,11.40
2024-03-21T09:10:23.546Z,11.50
2024-03-21T09:12:50.014Z,11.60
2024-03-21T09:15:19.464Z,11.70
2024-03-21T09:17:46.814Z,11.70
2024-03-21T09:20:13.463Z,11.80
2024-03-21T09:22:40.424Z,11.90
2024-03-21T09:25:08.006Z,11.90
2024-03-21T09:27:34.740Z,11.96
2024-03-21T09:30:01.219Z,12.00
2024-03-21T09:32:27.625Z,12.00
2024-03-21T09:34:54.131Z,12.10
2024-03-21T09:37:22.883Z,12.10
2024-03-21T09:39:49.383Z,12.20
2024-03-21T09:42:21.077Z,12.20
2024-03-21T09:44:50.146Z,12.30
2024-03-21T09:47:22.037Z,12.30
2024-03-21T09:49:48.665Z,12.30
2024-03-21T09:52:15.822Z,12.36
2024-03-21T09:54:42.639Z,12.40
2024-03-21T09:59:35.106Z,12.60
2024-03-21T10:02:01.586Z,12.60
2024-03-21T10:04:28.034Z,12.70
2024-03-21T10:06:54.375Z,12.80
2024-03-21T10:09:21.027Z,12.90
2024-03-21T10:11:50.790Z,13.00
2024-03-21T10:14:17.239Z,13.02
2024-03-21T10:16:44.027Z,13.20
2024-03-21T10:19:12.712Z,13.20
2024-03-21T10:21:39.240Z,13.30
2024-03-21T10:24:07.977Z,13.30
2024-03-21T10:26:34.408Z,13.38
2024-03-21T10:29:00.923Z,13.50
2024-03-21T10:31:27.307Z,13.60
2024-03-21T10:33:57.937Z,13.70
2024-03-21T10:36:24.724Z,13.84
2024-03-21T10:38:51.512Z,14.00
2024-03-21T10:41:27.283Z,14.10
2024-03-21T10:43:59.394Z,14.10
2024-03-21T10:46:28.390Z,14.20
2024-03-21T10:48:58.578Z,14.20
2024-03-21T10:51:25.371Z,14.30
2024-03-21T10:54:05.847Z,14.30
2024-03-21T10:56:40.093Z,14.40
2024-03-21T10:59:06.692Z,14.40
2024-03-21T11:01:42.464Z,14.50
2024-03-21T11:04:10.963Z,14.50
2024-03-21T11:06:40.239Z,14.50
2024-03-21T11:09:06.845Z,14.50
2024-03-21T11:11:34.058Z,14.60
2024-03-21T11:14:02.481Z,14.70
2024-03-21T11:16:30.123Z,14.80
2024-03-21T11:18:57.992Z,14.80
2024-03-21T11:21:25.302Z,14.80
2024-03-21T11:23:52.367Z,14.90
2024-03-21T11:26:20.912Z,14.86
2024-03-21T11:28:53.358Z,14.90
2024-03-21T11:31:24.357Z,14.94
2024-03-21T11:33:52.191Z,15.00
2024-03-21T11:36:21.248Z,15.04
2024-03-21T11:38:49.035Z,15.10
2024-03-21T11:41:23.444Z,15.20
2024-03-21T11:43:55.347Z,15.30
2024-03-21T11:46:27.253Z,15.40
2024-03-21T11:49:11.380Z,15.50
2024-03-21T11:51:38.435Z,15.60
2024-03-21T11:54:07.688Z,15.66
2024-03-21T11:56:36.595Z,15.70
2024-03-21T11:59:04.514Z,15.80
2024-03-21T12:01:32.014Z,15.90
2024-03-21T12:03:59.615Z,16.00
2024-03-21T12:06:26.078Z,16.10
2024-03-21T12:08:54.046Z,16.20
2024-03-21T12:11:21.903Z,16.30
2024-03-21T12:13:48.966Z,16.30
2024-03-21T12:16:17.954Z,16.40
2024-03-21T12:18:50.757Z,16.40
2024-03-21T12:21:21.399Z,16.52
2024-03-21T12:23:50.272Z,16.60
2024-03-21T12:26:17.793Z,16.70
2024-03-21T12:28:45.794Z,16.70
2024-03-21T12:31:15.066Z,16.68
2024-03-21T12:33:42.488Z,16.60
2024-03-21T12:36:11.199Z,16.60
2024-03-21T12:38:38.472Z,16.60
2024-03-21T12:41:08.649Z,16.60
2024-03-21T12:43:35.099Z,16.60
2024-03-21T12:46:01.558Z,16.50
2024-03-21T12:48:27.975Z,16.50
2024-03-21T12:50:54.421Z,16.50
2024-03-21T12:53:23.193Z,16.50
2024-03-21T12:55:50.188Z,16.50
2024-03-21T12:58:17.719Z,16.40
2024-03-21T13:00:50.078Z,16.32
2024-03-21T13:03:16.598Z,16.30
2024-03-21T13:05:45.915Z,16.30
2024-03-21T13:08:12.785Z,16.30
2024-03-21T13:10:39.278Z,16.30
2024-03-21T13:13:05.942Z,16.32
2024-03-21T13:15:32.621Z,16.40
2024-03-21T13:17:59.036Z,16.40
2024-03-21T13:20:27.293Z,16.50
2024-03-21T13:22:53.701Z,16.50
2024-03-21T13:25:22.646Z,16.60
2024-03-21T13:27:50.475Z,16.60
2024-03-21T13:30:17.802Z,16.60
2024-03-21T13:32:50.853Z,16.60
2024-03-21T13:35:17.649Z,16.70
2024-03-21T13:37:46.932Z,16.80
2024-03-21T13:40:13.442Z,16.90
2024-03-21T13:42:39.771Z,17.00
2024-03-21T13:47:40.687Z,17.10
2024-03-21T13:50:11.440Z,17.08
2024-03-21T13:52:39.878Z,17.00
2024-03-21T13:57:36.916Z,17.00
2024-03-21T14:00:07.498Z,17.00
2024-03-21T14:02:34.796Z,16.90
2024-03-21T14:05:04.807Z,16.76
2024-03-21T14:07:31.956Z,16.70
2024-03-21T14:09:58.752Z,16.70
2024-03-21T14:12:25.087Z,16.64
2024-03-21T14:14:51.439Z,16.60
2024-03-21T14:17:17.878Z,16.60
2024-03-21T14:19:44.755Z,16.52
2024-03-21T14:22:11.189Z,16.50
2024-03-21T14:24:37.622Z,16.60
2024-03-21T14:27:04.655Z,16.66
2024-03-21T14:29:30.975Z,16.70
2024-03-21T14:31:57.337Z,16.70
2024-03-21T14:34:23.819Z,16.70
2024-03-21T14:36:50.219Z,16.54
2024-03-21T14:39:16.716Z,16.30
2024-03-21T14:41:43.068Z,16.20
2024-03-21T14:46:36.056Z,16.10
2024-03-21T14:49:05.530Z,16.00
2024-03-21T14:51:33.623Z,15.90
2024-03-21T14:54:03.655Z,15.90
2024-03-21T14:56:30.403Z,15.90
2024-03-21T14:58:56.713Z,15.90
2024-03-21T15:01:23.157Z,15.80
2024-03-21T15:03:51.478Z,15.80
2024-03-21T15:06:20.957Z,15.70
2024-03-21T15:08:47.342Z,15.70
2024-03-21T15:11:13.709Z,15.70
2024-03-21T15:13:40.084Z,15.62
2024-03-21T15:16:06.782Z,15.60
2024-03-21T15:18:33.162Z,15.60
2024-03-21T15:20:59.624Z,15.60
2024-03-21T15:23:26.004Z,15.60
2024-03-21T15:25:52.405Z,15.60
2024-03-21T15:28:19.775Z,15.50
2024-03-21T15:30:46.365Z,15.40
2024-03-21T15:33:12.688Z,15.36
2024-03-21T15:35:39.159Z,15.30
2024-03-21T15:38:05.493Z,15.20
2024-03-21T15:40:32.385Z,15.10
2024-03-21T15:42:58.789Z,15.10
2024-03-21T15:45:25.210Z,15.00
2024-03-21T15:47:52.883Z,15.00
2024-03-21T15:50:19.479Z,15.00
2024-03-21T15:52:45.834Z,15.00
2024-03-21T15:55:12.214Z,15.00
2024-03-21T15:57:39.046Z,14.90
2024-03-21T16:00:11.829Z,14.86
2024-03-21T16:02:38.554Z,14.74
2024-03-21T16:05:05.924Z,14.64
2024-03-21T16:07:32.543Z,14.50
2024-03-21T16:09:59.016Z,14.36
2024-03-21T16:12:27.495Z,14.20
2024-03-21T16:14:53.907Z,14.10
2024-03-21T16:17:20.314Z,14.00
2024-03-21T16:19:48.301Z,13.90
2024-03-21T16:22:16.159Z,13.80
2024-03-21T16:24:42.986Z,13.70
2024-03-21T16:27:09.379Z,13.60
2024-03-21T16:29:35.797Z,13.50
2024-03-21T16:32:02.273Z,13.40
2024-03-21T16:34:28.642Z,13.38
2024-03-21T16:36:55.671Z,13.30
2024-03-21T16:39:22.041Z,13.20
2024-03-21T16:41:48.523Z,13.16
2024-03-21T16:44:14.893Z,13.10
2024-03-21T16:46:41.878Z,13.00
2024-03-21T16:49:08.965Z,13.00
2024-03-21T16:51:36.929Z,12.90
2024-03-21T16:54:04.993Z,12.86
2024-03-21T16:56:32.556Z,12.80
2024-03-21T16:58:58.922Z,12.70
2024-03-21T17:01:25.382Z,12.70
2024-03-21T17:03:51.744Z,12.60
2024-03-21T17:06:18.118Z,12.60
2024-03-21T17:08:44.532Z,12.54
2024-03-21T17:13:36.378Z,12.50
2024-03-21T17:16:03.921Z,12.44
2024-03-21T17:18:30.819Z,12.40
2024-03-21T17:20:57.783Z,12.40
2024-03-21T17:23:24.593Z,12.30
2024-03-21T17:25:51.673Z,12.30
2024-03-21T17:28:18.368Z,12.30
2024-03-21T17:30:45.273Z,12.28
2024-03-21T17:33:11.670Z,12.20
2024-03-21T17:35:38.352Z,12.20
2024-03-21T17:38:04.847Z,12.14
2024-03-21T17:40:31.338Z,12.10
2024-03-21T17:42:58.178Z,12.10
2024-03-21T17:45:25.075Z,12.02
2024-03-21T17:47:52.236Z,12.00
2024-03-21T17:50:18.958Z,12.00
2024-03-21T17:52:45.450Z,12.00
2024-03-21T17:55:11.978Z,11.90
2024-03-21T17:57:38.324Z,11.86
2024-03-21T18:00:05.588Z,11.80
2024-03-21T18:02:31.987Z,11.70
2024-03-21T18:04:58.654Z,11.60
2024-03-21T18:07:24.998Z,11.60
2024-03-21T18:09:51.360Z,11.50
2024-03-21T18:12:17.740Z,11.50
2024-03-21T18:14:46.081Z,11.50
2024-03-21T18:17:14.481Z,11.50
2024-03-21T18:19:42.397Z,11.50
2024-03-21T18:22:08.728Z,11.50
2024-03-21T18:24:35.634Z,11.50
2024-03-21T18:27:02.019Z,11.50
2024-03-21T18:29:28.331Z,11.40
2024-03-21T18:31:54.715Z,11.40
2024-03-21T18:34:21.167Z,11.40
2024-03-21T18:36:47.479Z,11.40
2024-03-21T18:39:15.103Z,11.40
2024-03-21T18:41:41.520Z,11.36
2024-03-21T18:44:07.832Z,11.30
2024-03-21T18:46:34.772Z,11.30
2024-03-21T18:49:01.152Z,11.30
2024-03-21T18:51:27.514Z,11.30
2024-03-21T18:53:53.859Z,11.30
2024-03-21T18:56:20.334Z,11.26
2024-03-21T18:58:46.666Z,11.20
2024-03-21T19:01:13.021Z,11.20
2024-03-21T19:03:39.358Z,11.20
2024-03-21T19:06:05.815Z,11.20
2024-03-21T19:08:32.367Z,11.20
2024-03-21T19:10:59.051Z,11.20
2024-03-21T19:13:25.401Z,11.20
2024-03-21T19:15:51.816Z,11.20
2024-03-21T19:18:18.164Z,11.20
2024-03-21T19:20:44.565Z,11.20
2024-03-21T19:23:12.382Z,11.20
2024-03-21T19:25:38.698Z,11.20
2024-03-21T19:28:05.189Z,11.20
2024-03-21T19:30:31.943Z,11.20
2024-03-21T19:32:58.256Z,11.20
2024-03-21T19:35:25.445Z,11.20
2024-03-21T19:37:52.367Z,11.20
2024-03-21T19:40:24.388Z,11.28
2024-03-21T19:42:52.177Z,11.30
2024-03-21T19:45:20.230Z,11.30
2024-03-21T19:47:48.163Z,11.30
2024-03-21T19:50:15.115Z,11.30
2024-03-21T19:52:42.133Z,11.40
2024-03-21T19:55:10.289Z,11.40
2024-03-21T19:57:38.021Z,11.40
2024-03-21T20:00:06.243Z,11.40
2024-03-21T20:02:37.915Z,11.40
2024-03-21T20:05:08.196Z,11.40
2024-03-21T20:07:36.475Z,11.42
2024-03-21T20:10:03.516Z,11.46
2024-03-21T20:12:29.910Z,11.50
2024-03-21T20:14:59.573Z,11.50
2024-03-21T20:17:25.971Z,11.50
2024-03-21T20:19:52.935Z,11.50
2024-03-21T20:22:19.422Z,11.50
2024-03-21T20:24:47.529Z,11.50
2024-03-21T20:27:14.546Z,11.50
2024-03-21T20:29:40.982Z,11.50
2024-03-21T20:32:10.361Z,11.50
2024-03-21T20:34:37.202Z,11.54
2024-03-21T20:37:04.389Z,11.56
2024-03-21T20:39:37.597Z,11.54
2024-03-21T20:42:05.147Z,11.54
2024-03-21T20:44:31.573Z,11.50
2024-03-21T20:46:57.914Z,11.52
2024-03-21T20:49:24.234Z,11.50
2024-03-21T20:51:50.596Z,11.50
2024-03-21T20:54:17.133Z,11.50
2024-03-21T20:56:43.931Z,11.50
2024-03-21T20:59:10.523Z,11.50
2024-03-21T21:01:36.835Z,11.50
2024-03-21T21:04:08.187Z,11.42
2024-03-21T21:06:36.648Z,11.40
2024-03-21T21:09:03.650Z,11.40
2024-03-21T21:11:30.404Z,11.40
2024-03-21T21:13:56.739Z,11.30
2024-03-21T21:16:23.060Z,11.20
2024-03-21T21:18:49.411Z,11.10
2024-03-21T21:21:15.801Z,11.00
2024-03-21T21:23:42.131Z,10.90
2024-03-21T21:31:46.121Z,10.70
2024-03-21T21:34:27.850Z,10.60
2024-03-21T21:42:35.699Z,10.40
2024-03-21T21:47:37.241Z,10.38
2024-03-21T21:50:03.964Z,10.30
2024-03-21T21:52:30.303Z,10.30
2024-03-21T21:54:56.668Z,10.30
2024-03-21T21:57:25.031Z,10.30
2024-03-21T21:59:51.331Z,10.28
2024-03-21T22:02:17.677Z,10.30
2024-03-21T22:04:43.986Z,10.20
2024-03-21T22:07:10.355Z,10.22
2024-03-21T22:09:36.690Z,10.30
2024-03-21T22:12:03.167Z,10.30
2024-03-21T22:14:29.726Z,10.30
2024-03-21T22:16:56.049Z,10.30
2024-03-21T22:19:22.375Z,10.30
2024-03-21T22:21:48.702Z,10.40
2024-03-21T22:24:15.002Z,10.40
2024-03-21T22:26:41.312Z,10.40
2024-03-21T22:29:07.639Z,10.40
2024-03-21T22:31:33.938Z,10.40
2024-03-21T22:34:00.274Z,10.40
2024-03-21T22:36:27.155Z,10.50
2024-03-21T22:38:53.475Z,10.50
2024-03-21T22:41:19.881Z,10.50
2024-03-21T22:43:46.199Z,10.50
2024-03-21T22:46:12.529Z,10.50
2024-03-21T22:48:40.502Z,10.50
2024-03-21T22:51:09.475Z,10.50
2024-03-21T22:53:36.653Z,10.50
2024-03-21T22:56:03.763Z,10.50
2024-03-21T22:58:30.972Z,10.52
2024-03-21T23:00:57.847Z,10.50
2024-03-21T23:03:24.526Z,10.50
2024-03-21T23:05:50.881Z,10.52
2024-03-21T23:08:17.212Z,10.60
2024-03-21T23:10:43.653Z,10.60
2024-03-21T23:13:10.023Z,10.60
2024-03-21T23:15:37.140Z,10.60
2024-03-21T23:18:07.163Z,10.60
2024-03-21T23:20:34.949Z,10.60
2024-03-21T23:23:01.717Z,10.60
2024-03-21T23:25:28.061Z,10.60
2024-03-21T23:27:54.596Z,10.60
2024-03-21T23:30:21.259Z,10.52
2024-03-21T23:32:48.190Z,10.50
2024-03-21T23:35:14.696Z,10.50
2024-03-21T23:37:41.059Z,10.50
2024-03-21T23:40:08.018Z,10.50
2024-03-21T23:42:34.627Z,10.50
2024-03-21T23:45:00.954Z,10.50
2024-03-21T23:47:27.326Z,10.50
2024-03-21T23:49:54.619Z,10.50
2024-03-21T23:52:21.720Z,10.50
2024-03-21T23:54:48.331Z,10.58
2024-03-21T23:57:15.317Z,10.58
2024-03-21T23:59:44.246Z,10.54
